CheckWX is a tool to help pilots better visualize weather data.  It is not intended as a substitute for an official pre-flight weather briefing.

00:36:17 UTC

ESMK METAR
Kristianstad Airport
Kristianstad, Sweden
Current

16 mins ago

ESMK 270020Z AUTO 26006KT 9999 FEW068/// 01/M02 Q1023
Observed
Mar-27 @ 00:20 UTC
Wind
  • 260° at 6 KTS
Visibility
10,000+ meters
Flight Rules
VFR
Cloud Levels
  • Few at 6,800' AGL
Temperature
C / 34°F
Dewpoint
-2°C / 28°F
Humidity
81%
Altimeter
30.21" Hg
Pressure
1022.92 hPa
Previous

46 mins ago

ESMK 262350Z AUTO 26005KT 9999 NCD 02/M03 Q1023
Observed
Mar-26 @ 23:50 UTC
Wind
  • 260° at 5 KTS
Visibility
10,000+ meters
Flight Rules
VFR
Cloud Levels
  • Clear skies
Temperature
C / 36°F
Dewpoint
-3°C / 27°F
Humidity
70%
Altimeter
30.21" Hg
Pressure
1022.92 hPa
Previous

1 hour ago

ESMK 262320Z AUTO 27006KT 9999 NCD 02/M03 Q1023
Observed
Mar-26 @ 23:20 UTC
Wind
  • 270° at 6 KTS
Visibility
10,000+ meters
Flight Rules
VFR
Cloud Levels
  • Clear skies
Temperature
C / 36°F
Dewpoint
-3°C / 27°F
Humidity
70%
Altimeter
30.21" Hg
Pressure
1022.92 hPa